Time;durP1;ratioP1;P1;durP2;ratioP2;P2;SDS_P1;SDS_P2;PMS_P1;PMS_P2;Temp;Humidity;BMP_temperature;BMP_pressure;BME280_temperature;BME280_humidity;BME280_pressure;Samples;Min_cycle;Max_cycle;Signal;HPM_P1;HPM_P2
2022/12/21 14:12:52;;;;;;;14.80;7.90;;;;;;;7.62;100.00;100890.06;5287822;27;20470;-73
2022/12/21 14:15:55;;;;;;;14.93;6.70;;;;;;;7.63;100.00;100881.31;5287874;28;20504;-74
2022/12/21 14:18:39;;;;;;;20.43;7.87;;;;;;;7.65;100.00;100882.06;5259543;28;20120;-75
2022/12/21 14:21:21;;;;;;;14.17;6.47;;;;;;;7.66;100.00;100886.41;5261460;28;20441;-75
2022/12/21 14:23:56;;;;;;;11.63;6.97;;;;;;;7.66;100.00;100875.97;5259090;28;20426;-74
2022/12/21 14:26:42;;;;;;;13.00;7.33;;;;;;;7.68;100.00;100871.50;5257386;28;20102;-72
2022/12/21 14:29:30;;;;;;;12.43;7.07;;;;;;;7.74;100.00;100878.19;5252922;28;20100;-73
2022/12/21 14:32:10;;;;;;;8.97;5.43;;;;;;;7.74;100.00;100879.06;5266097;28;20021;-74
2022/12/21 14:34:46;;;;;;;14.13;6.70;;;;;;;7.73;100.00;100866.91;5250966;28;20079;-74
2022/12/21 14:37:21;;;;;;;11.97;6.83;;;;;;;7.74;100.00;100858.19;5270690;28;20029;-75
2022/12/21 14:40:18;;;;;;;12.73;6.80;;;;;;;7.79;100.00;100849.28;5258470;28;20025;-74
2022/12/21 14:42:54;;;;;;;13.07;6.87;;;;;;;7.81;100.00;100853.53;5252878;28;20581;-72
2022/12/21 14:45:44;;;;;;;14.00;7.43;;;;;;;7.83;100.00;100856.06;5256168;28;20428;-74
2022/12/21 14:48:28;;;;;;;18.30;7.30;;;;;;;7.81;100.00;100850.91;5259098;28;20028;-74
2022/12/21 14:51:06;;;;;;;11.67;7.03;;;;;;;7.76;100.00;100852.91;5264644;28;20115;-75
2022/12/21 14:53:40;;;;;;;16.70;7.30;;;;;;;7.78;100.00;100845.00;5270716;28;20275;-72
2022/12/21 14:56:15;;;;;;;11.40;6.97;;;;;;;7.78;100.00;100839.78;5267534;28;20020;-72
2022/12/21 14:58:59;;;;;;;10.77;6.70;;;;;;;7.74;100.00;100828.66;5270866;28;20036;-73
2022/12/21 15:01:31;;;;;;;15.30;8.07;;;;;;;7.77;100.00;100825.06;5272101;28;20555;-74
2022/12/21 15:04:19;;;;;;;13.47;8.10;;;;;;;7.73;100.00;100829.59;5270427;28;20115;-74
2022/12/21 15:07:04;;;;;;;15.17;7.00;;;;;;;7.73;100.00;100830.41;5259474;28;20071;-74
2022/12/21 15:09:35;;;;;;;14.57;7.43;;;;;;;7.71;100.00;100821.84;5258957;28;20647;-71
2022/12/21 15:12:28;;;;;;;10.90;7.17;;;;;;;7.75;100.00;100828.59;5254707;28;20056;-74
2022/12/21 15:15:00;;;;;;;14.27;7.97;;;;;;;7.72;100.00;100820.06;5262511;28;20033;-75
2022/12/21 15:17:32;;;;;;;10.63;8.03;;;;;;;7.62;100.00;100811.84;5260695;28;20017;-75
2022/12/21 15:20:03;;;;;;;21.93;12.50;;;;;;;7.69;100.00;100817.63;5264220;28;20276;-75
2022/12/21 15:22:46;;;;;;;16.30;8.93;;;;;;;7.71;100.00;100816.63;5262641;28;20122;-73
2022/12/21 15:25:22;;;;;;;20.33;10.10;;;;;;;7.73;100.00;100824.38;5254713;28;20025;-75
2022/12/21 15:28:02;;;;;;;18.20;9.57;;;;;;;7.59;100.00;100814.63;5257618;28;20036;-76
2022/12/21 15:30:41;;;;;;;18.60;9.70;;;;;;;7.67;100.00;100814.22;5255079;28;20113;-74
2022/12/21 15:33:18;;;;;;;18.27;11.20;;;;;;;7.69;100.00;100808.03;5251858;28;20089;-73
2022/12/21 15:35:54;;;;;;;18.60;11.00;;;;;;;7.66;100.00;100786.47;5254955;28;20056;-70
2022/12/21 15:38:38;;;;;;;17.97;10.50;;;;;;;7.66;100.00;100782.13;5246855;28;20032;-73
2022/12/21 15:41:41;;;;;;;20.60;11.40;;;;;;;7.68;100.00;100782.88;5245551;28;20037;-73
2022/12/21 15:44:27;;;;;;;14.20;9.37;;;;;;;7.61;100.00;100781.50;5248243;28;20041;-72
2022/12/21 15:47:20;;;;;;;14.27;9.47;;;;;;;7.69;100.00;100791.53;5246694;28;20083;-71
2022/12/21 15:50:03;;;;;;;14.53;9.37;;;;;;;7.70;100.00;100791.47;5253181;28;20021;-72
2022/12/21 15:52:41;;;;;;;18.97;9.40;;;;;;;7.69;100.00;100787.19;5251024;28;20456;-69
2022/12/21 15:55:16;;;;;;;16.77;9.70;;;;;;;7.68;100.00;100775.03;5242508;28;20663;-70
2022/12/21 15:58:00;;;;;;;15.60;9.50;;;;;;;7.66;100.00;100778.66;5253295;28;20047;-70
2022/12/21 16:00:55;;;;;;;15.68;10.30;;;;;;;7.66;100.00;100771.69;5255612;28;20025;-71
2022/12/21 16:03:26;;;;;;;16.20;9.53;;;;;;;7.70;100.00;100777.56;5244409;28;20037;-71
2022/12/21 16:06:14;;;;;;;18.83;8.43;;;;;;;7.71;100.00;100776.69;5255240;28;20075;-71
2022/12/21 16:08:46;;;;;;;15.83;8.67;;;;;;;7.71;100.00;100779.28;5247194;28;20033;-72
2022/12/21 16:11:39;;;;;;;16.70;9.27;;;;;;;7.70;100.00;100777.56;5241544;28;20049;-71
2022/12/21 16:14:14;;;;;;;16.20;9.03;;;;;;;7.72;100.00;100774.00;5254717;28;20476;-71
2022/12/21 16:16:54;;;;;;;15.07;8.80;;;;;;;7.73;100.00;100773.06;5244287;28;20025;-70
2022/12/21 16:19:30;;;;;;;17.03;8.33;;;;;;;7.67;100.00;100764.69;5252029;28;20028;-70
2022/12/21 16:22:14;;;;;;;14.33;9.77;;;;;;;7.67;100.00;100770.75;5239689;28;20060;-74
2022/12/21 16:24:50;;;;;;;20.90;10.20;;;;;;;7.73;100.00;100770.44;5240985;28;20044;-72
2022/12/21 16:27:23;;;;;;;17.27;9.50;;;;;;;7.74;100.00;100768.69;5245717;28;20479;-71
2022/12/21 16:29:57;;;;;;;16.90;8.60;;;;;;;7.70;100.00;100778.44;5244992;28;20025;-70
2022/12/21 16:32:32;;;;;;;12.80;8.63;;;;;;;7.66;100.00;100771.69;5246185;28;20128;-74
2022/12/21 16:35:04;;;;;;;13.65;9.15;;;;;;;7.72;100.00;100768.78;5243551;28;20033;-69
2022/12/21 16:37:35;;;;;;;15.53;8.77;;;;;;;7.68;100.00;100767.22;5245963;28;20033;-70
2022/12/21 16:40:19;;;;;;;13.97;8.57;;;;;;;7.69;100.00;100753.28;5245565;28;20063;-72
2022/12/21 16:42:59;;;;;;;16.63;7.87;;;;;;;7.72;100.00;100755.75;5247508;28;20028;-74
2022/12/21 16:45:50;;;;;;;16.17;9.10;;;;;;;7.72;100.00;100760.09;5245719;28;20126;-73
2022/12/21 16:48:23;;;;;;;13.07;7.83;;;;;;;7.71;100.00;100759.28;5247442;28;20075;-70
2022/12/21 16:50:58;;;;;;;15.13;7.90;;;;;;;7.67;100.00;100757.72;5244880;28;20032;-70
2022/12/21 16:53:35;;;;;;;18.07;8.53;;;;;;;7.70;100.00;100757.56;5246745;28;20044;-69
2022/12/21 16:56:15;;;;;;;14.00;7.83;;;;;;;7.71;100.00;100754.06;5246727;28;20044;-70
2022/12/21 16:58:53;;;;;;;13.97;7.77;;;;;;;7.71;100.00;100740.19;5247364;28;20037;-70
2022/12/21 17:01:31;;;;;;;14.17;8.23;;;;;;;7.74;100.00;100740.88;5247315;28;20395;-70
2022/12/21 17:04:18;;;;;;;16.67;7.40;;;;;;;7.70;100.00;100731.50;5246150;28;20025;-71
2022/12/21 17:07:06;;;;;;;10.33;7.00;;;;;;;7.74;100.00;100735.66;5247070;28;20116;-69
2022/12/21 17:09:59;;;;;;;12.67;7.30;;;;;;;7.73;100.00;100725.31;5246386;28;20056;-69
2022/12/21 17:12:40;;;;;;;14.10;8.43;;;;;;;7.77;100.00;100739.03;5245906;28;20044;-69
2022/12/21 17:15:33;;;;;;;11.67;7.27;;;;;;;7.77;100.00;100729.44;5245027;28;20395;-70
2022/12/21 17:18:26;;;;;;;14.33;8.40;;;;;;;7.56;100.00;100719.16;5245385;28;20484;-74
2022/12/21 17:20:59;;;;;;;13.47;7.70;;;;;;;7.67;100.00;100720.38;5244555;28;20048;-68
2022/12/21 17:23:32;;;;;;;14.00;7.53;;;;;;;7.62;100.00;100703.22;5246824;28;20051;-71
2022/12/21 17:26:37;;;;;;;16.10;7.33;;;;;;;7.61;100.00;100695.50;5244631;28;20040;-71
2022/12/21 17:29:08;;;;;;;10.98;7.20;;;;;;;7.55;100.00;100674.94;5245854;28;20434;-72
2022/12/21 17:31:40;;;;;;;11.00;7.33;;;;;;;7.40;100.00;100656.50;5244730;28;20033;-71
2022/12/21 17:34:20;;;;;;;9.50;7.30;;;;;;;7.44;100.00;100613.75;5245417;28;20021;-72
2022/12/21 17:36:52;;;;;;;17.23;7.50;;;;;;;7.46;100.00;100622.34;5245003;28;20427;-70
2022/12/21 17:39:24;;;;;;;10.97;6.60;;;;;;;7.38;100.00;100619.28;5245359;28;20100;-72
2022/12/21 17:41:55;;;;;;;10.43;6.23;;;;;;;7.43;100.00;100645.97;5243493;28;20123;-69
2022/12/21 17:44:26;;;;;;;13.67;6.30;;;;;;;7.45;100.00;100669.34;5244523;28;20478;-72
2022/12/21 17:46:58;;;;;;;11.93;6.27;;;;;;;7.43;100.00;100672.03;5244302;28;20036;-71
2022/12/21 17:49:29;;;;;;;12.50;6.77;;;;;;;7.54;100.00;100681.88;5242261;28;20044;-71
2022/12/21 17:52:01;;;;;;;14.73;6.37;;;;;;;7.54;100.00;100686.28;5244337;28;20657;-72
2022/12/21 17:54:32;;;;;;;10.80;6.63;;;;;;;7.58;100.00;100685.19;5243368;28;20071;-72
2022/12/21 17:57:13;;;;;;;11.53;7.20;;;;;;;7.56;100.00;100682.66;5244548;28;20053;-71
2022/12/21 17:59:44;;;;;;;13.23;6.90;;;;;;;7.57;100.00;100678.31;5245824;28;20381;-72
2022/12/21 18:02:17;;;;;;;11.43;6.53;;;;;;;7.55;100.00;100674.94;5243857;28;20124;-71
2022/12/21 18:04:53;;;;;;;12.53;6.73;;;;;;;7.53;100.00;100677.63;5241881;28;20114;-70
2022/12/21 18:07:25;;;;;;;12.27;6.77;;;;;;;7.49;100.00;100657.81;5246561;28;20041;-75
2022/12/21 18:09:57;;;;;;;12.37;7.30;;;;;;;7.50;100.00;100662.94;5248236;28;20280;-76
2022/12/21 18:12:28;;;;;;;9.57;6.00;;;;;;;7.33;100.00;100635.13;5248372;28;20060;-75
2022/12/21 18:15:00;;;;;;;10.97;7.23;;;;;;;7.61;100.00;100672.03;5246748;28;20025;-73
2022/12/21 18:17:31;;;;;;;8.67;6.07;;;;;;;7.62;100.00;100663.28;5248846;28;20033;-71
2022/12/21 18:20:03;;;;;;;10.43;7.10;;;;;;;7.61;100.00;100669.44;5247715;28;20037;-71
2022/12/21 18:22:34;;;;;;;9.67;7.27;;;;;;;7.53;100.00;100650.69;5245758;28;20033;-69
2022/12/21 18:25:12;;;;;;;13.50;7.00;;;;;;;7.64;100.00;100664.06;5244364;28;20033;-75
2022/12/21 18:27:44;;;;;;;11.33;7.33;;;;;;;7.64;100.00;100661.44;5244904;28;20029;-72
2022/12/21 18:30:19;;;;;;;11.60;7.63;;;;;;;7.58;100.00;100653.91;5246042;28;20965;-72
2022/12/21 18:32:52;;;;;;;;;;;;;;;7.69;100.00;100650.78;5245400;28;20612;-72
2022/12/21 18:35:27;;;;;;;14.60;7.37;;;;;;;7.60;100.00;100646.88;5245751;28;19973;-72
2022/12/21 18:38:01;;;;;;;10.57;7.38;;;;;;;7.63;100.00;100639.75;5244652;28;20047;-70
2022/12/21 18:40:32;;;;;;;11.15;7.72;;;;;;;7.65;100.00;100644.03;5245265;28;20485;-69
2022/12/21 18:43:17;;;;;;;10.50;7.87;;;;;;;7.61;100.00;100638.16;5247325;28;20029;-69
2022/12/21 18:45:49;;;;;;;10.32;8.32;;;;;;;7.57;100.00;100637.47;5245449;28;20095;-70
2022/12/21 18:48:21;;;;;;;15.30;8.40;;;;;;;7.63;100.00;100636.28;5244872;28;21302;-70
2022/12/21 18:50:52;;;;;;;12.97;8.00;;;;;;;7.66;100.00;100633.53;5247197;28;20025;-71
2022/12/21 18:53:24;;;;;;;9.83;7.23;;;;;;;7.65;100.00;100626.63;5245226;28;20380;-70
2022/12/21 18:55:55;;;;;;;11.00;7.67;;;;;;;7.26;100.00;100571.25;5246130;28;20140;-71
2022/12/21 18:58:26;;;;;;;8.43;6.60;;;;;;;7.67;100.00;100627.41;5248227;28;20036;-71
2022/12/21 19:00:58;;;;;;;9.93;7.40;;;;;;;7.67;100.00;100632.59;5249759;28;20483;-73
2022/12/21 19:03:29;;;;;;;11.83;6.90;;;;;;;7.69;100.00;100629.91;5248957;28;20508;-69
2022/12/21 19:06:01;;;;;;;9.50;7.37;;;;;;;7.62;100.00;100618.97;5246642;28;20135;-70
2022/12/21 19:08:32;;;;;;;8.67;7.23;;;;;;;7.58;100.00;100601.78;5249085;28;20025;-77
2022/12/21 19:11:03;;;;;;;13.90;6.60;;;;;;;7.72;100.00;100620.19;5248778;28;20428;-73
2022/12/21 19:13:40;;;;;;;11.57;7.17;;;;;;;7.66;100.00;100617.06;5250368;28;20025;-79
2022/12/21 19:16:18;;;;;;;10.47;7.23;;;;;;;7.72;100.00;100603.69;5248405;28;20033;-72
2022/12/21 19:18:50;;;;;;;7.43;6.30;;;;;;;7.70;100.00;100610.75;5247446;28;20040;-71
2022/12/21 19:21:28;;;;;;;9.57;6.80;;;;;;;7.73;100.00;100601.00;5250360;28;20037;-70
2022/12/21 19:24:10;;;;;;;11.43;7.27;;;;;;;7.64;100.00;100583.25;5248482;28;20043;-72
2022/12/21 19:26:42;;;;;;;12.00;7.70;;;;;;;7.71;100.00;100602.88;5248698;28;20036;-73
2022/12/21 19:29:25;;;;;;;9.23;6.70;;;;;;;7.76;100.00;100592.19;5249659;28;20029;-72
2022/12/21 19:31:56;;;;;;;11.20;7.10;;;;;;;7.69;100.00;100583.84;5250090;28;20051;-72
2022/12/21 19:34:28;;;;;;;13.00;7.73;;;;;;;7.76;100.00;100594.78;5250666;28;20066;-73
2022/12/21 19:37:00;;;;;;;11.23;7.50;;;;;;;7.71;100.00;100587.22;5249795;28;20025;-73
2022/12/21 19:39:37;;;;;;;11.93;8.10;;;;;;;7.75;100.00;100591.34;5250545;28;20041;-74
2022/12/21 19:42:15;;;;;;;13.00;7.67;;;;;;;7.75;100.00;100591.34;5251794;28;20132;-72
2022/12/21 19:44:47;;;;;;;9.73;7.40;;;;;;;7.80;100.00;100592.88;5249584;28;20505;-72
2022/12/21 19:47:22;;;;;;;9.37;8.17;;;;;;;7.77;100.00;100588.66;5248451;28;20024;-69
2022/12/21 19:49:54;;;;;;;10.33;6.90;;;;;;;7.82;100.00;100591.03;5247696;28;20060;-70
2022/12/21 19:52:26;;;;;;;14.13;9.03;;;;;;;7.80;100.00;100587.66;5249069;28;20060;-74
2022/12/21 19:54:58;;;;;;;13.70;8.17;;;;;;;7.83;100.00;100582.28;5249475;28;20049;-69
2022/12/21 19:57:35;;;;;;;11.13;8.77;;;;;;;7.80;100.00;100572.03;5246677;28;20423;-70
2022/12/21 20:00:17;;;;;;;10.70;8.33;;;;;;;7.83;100.00;100570.09;5247911;28;20036;-72
2022/12/21 20:02:49;;;;;;;10.67;7.83;;;;;;;7.68;100.00;100561.28;5248530;28;20129;-69
2022/12/21 20:05:28;;;;;;;13.77;8.60;;;;;;;7.85;100.00;100567.41;5249552;28;20051;-70
2022/12/21 20:07:59;;;;;;;10.47;8.20;;;;;;;7.86;100.00;100553.44;5249082;28;20484;-76
2022/12/21 20:10:32;;;;;;;12.57;8.80;;;;;;;7.77;100.00;100551.34;5248733;28;20113;-72
2022/12/21 20:13:11;;;;;;;12.00;9.63;;;;;;;7.78;100.00;100548.63;5248913;28;20035;-71
2022/12/21 20:15:44;;;;;;;14.17;9.50;;;;;;;7.60;100.00;100516.56;5248240;28;20131;-70
2022/12/21 20:18:18;;;;;;;12.63;9.57;;;;;;;7.82;100.00;100557.97;5248360;28;20380;-70
2022/12/21 20:20:51;;;;;;;10.88;9.75;;;;;;;7.82;100.00;100547.53;5249101;28;20025;-71
2022/12/21 20:23:22;;;;;;;11.33;9.93;;;;;;;7.89;100.00;100555.88;5243190;28;20120;-70
2022/12/21 20:25:54;;;;;;;11.23;9.17;;;;;;;7.93;100.00;100552.19;5243847;28;20029;-70
2022/12/21 20:28:28;;;;;;;13.17;10.50;;;;;;;7.90;100.00;100541.06;5247220;28;20051;-71
2022/12/21 20:30:59;;;;;;;12.38;9.48;;;;;;;7.86;100.00;100543.00;5246119;28;20028;-68
2022/12/21 20:33:32;;;;;;;14.47;10.93;;;;;;;7.92;100.00;100542.69;5246415;28;20021;-72
2022/12/21 20:36:04;;;;;;;10.63;9.20;;;;;;;7.92;100.00;100540.09;5243052;28;20049;-71
2022/12/21 20:38:35;;;;;;;11.10;9.40;;;;;;;7.93;100.00;100535.69;5245609;28;20112;-69
2022/12/21 20:41:07;;;;;;;14.47;11.40;;;;;;;7.94;100.00;100543.44;5247049;28;20039;-71
2022/12/21 20:43:52;;;;;;;17.27;9.97;;;;;;;7.93;100.00;100530.47;5248806;28;20040;-71
2022/12/21 20:46:35;;;;;;;10.77;9.67;;;;;;;7.94;100.00;100533.00;5247164;28;20025;-71
2022/12/21 20:49:13;;;;;;;11.53;10.33;;;;;;;7.92;100.00;100518.38;5245469;28;20588;-70
2022/12/21 20:51:45;;;;;;;12.23;10.07;;;;;;;7.86;100.00;100519.53;5246107;28;20037;-71
2022/12/21 20:54:19;;;;;;;11.03;9.50;;;;;;;7.99;100.00;100533.59;5249643;28;20086;-71
2022/12/21 20:56:50;;;;;;;14.20;11.07;;;;;;;7.97;100.00;100530.25;5243893;28;20040;-70
2022/12/21 20:59:21;;;;;;;12.13;10.33;;;;;;;7.96;100.00;100512.03;5245711;28;20054;-71
2022/12/21 21:02:03;;;;;;;11.20;10.10;;;;;;;7.98;100.00;100518.03;5244967;28;20115;-70
2022/12/21 21:04:37;;;;;;;11.73;9.97;;;;;;;8.01;100.00;100514.44;5243647;28;20088;-69
2022/12/21 21:07:24;;;;;;;12.10;10.90;;;;;;;8.06;100.00;100522.84;5245237;28;20025;-72
2022/12/21 21:09:56;;;;;;;13.87;10.93;;;;;;;8.04;100.00;100515.09;5245794;28;20068;-70
2022/12/21 21:12:27;;;;;;;15.70;10.90;;;;;;;7.99;100.00;100506.69;5245355;28;20649;-71
2022/12/21 21:14:58;;;;;;;12.10;10.73;;;;;;;8.05;100.00;100508.09;5244811;28;20040;-70
2022/12/21 21:17:31;;;;;;;14.50;10.43;;;;;;;8.01;100.00;100509.22;5243680;28;20048;-69
2022/12/21 21:20:03;;;;;;;10.57;9.30;;;;;;;8.02;100.00;100505.66;5243392;28;20094;-69
2022/12/21 21:25:36;;;;;;;11.67;10.13;;;;;;;8.06;100.00;100501.97;5243096;28;20155;-68
2022/12/21 21:28:15;;;;;;;12.10;10.30;;;;;;;8.05;100.00;100503.72;5241224;28;20025;-68
2022/12/21 21:30:49;;;;;;;13.60;9.63;;;;;;;8.06;100.00;100497.59;5241991;28;20028;-68
2022/12/21 21:33:23;;;;;;;12.15;10.75;;;;;;;8.01;100.00;100490.97;5245454;28;20035;-71
2022/12/21 21:35:57;;;;;;;12.37;10.30;;;;;;;8.07;100.00;100498.44;5246505;28;20483;-69
2022/12/21 21:41:33;;;;;;;12.20;10.57;;;;;;;8.08;100.00;100497.53;5243028;28;20040;-70
2022/12/21 21:44:27;;;;;;;14.40;10.27;;;;;;;8.07;100.00;100490.59;5244936;28;20515;-69
2022/12/21 21:47:30;;;;;;;10.32;9.32;;;;;;;8.08;100.00;100494.91;5245454;28;20121;-70
2022/12/21 21:49:51;;;;;;;12.87;9.93;;;;;;;8.04;100.00;100494.25;5246644;28;20404;-72
2022/12/21 21:52:23;;;;;;;10.50;9.10;;;;;;;8.09;100.00;100491.38;5249947;28;20032;-72
2022/12/21 21:54:54;;;;;;;11.97;9.60;;;;;;;8.09;100.00;100488.75;5246912;28;20021;-72
2022/12/21 21:57:28;;;;;;;11.97;10.27;;;;;;;8.10;100.00;100482.59;5247718;28;20663;-73
2022/12/21 21:59:59;;;;;;;11.60;9.67;;;;;;;8.09;100.00;100481.78;5247311;28;20361;-71
2022/12/21 22:02:47;;;;;;;15.10;9.70;;;;;;;8.09;100.00;100473.09;5245183;28;20025;-71
2022/12/21 22:05:21;;;;;;;11.00;9.83;;;;;;;8.11;100.00;100473.88;5245292;28;20037;-72
2022/12/21 22:07:52;;;;;;;11.00;10.00;;;;;;;8.08;100.00;100463.63;5241006;28;20029;-71
2022/12/21 22:10:32;;;;;;;11.47;10.23;;;;;;;8.06;100.00;100455.03;5245969;28;20053;-70
